Time;durP1;ratioP1;P1;durP2;ratioP2;P2;SDS_P1;SDS_P2;PMS_P1;PMS_P2;Temp;Humidity;BMP_temperature;BMP_pressure;BME280_temperature;BME280_humidity;BME280_pressure;Samples;Min_cycle;Max_cycle;Signal;HPM_P1;HPM_P2
2022/05/28 00:02:05;;;;;;;0.98;0.30;;;25.00;44.20;;;;;;5013475;28;20025;-54
2022/05/28 00:04:31;;;;;;;1.30;0.60;;;25.00;44.20;;;;;;5013922;28;20044;-53
2022/05/28 00:06:57;;;;;;;1.27;0.50;;;25.00;44.20;;;;;;5013547;28;20535;-53
2022/05/28 00:09:22;;;;;;;1.05;0.43;;;25.00;44.20;;;;;;5013098;28;20028;-55
2022/05/28 00:11:48;;;;;;;0.95;0.35;;;25.00;44.20;;;;;;5012981;28;20034;-55
2022/05/28 00:14:14;;;;;;;1.17;0.50;;;25.00;44.20;;;;;;5012513;28;20477;-54
2022/05/28 00:16:41;;;;;;;0.77;0.50;;;25.00;44.20;;;;;;5013380;28;20053;-54
2022/05/28 00:19:08;;;;;;;1.10;0.40;;;25.00;44.20;;;;;;5012941;28;20057;-54
2022/05/28 00:21:34;;;;;;;1.65;0.45;;;25.00;44.20;;;;;;5013169;28;20042;-53
2022/05/28 00:24:00;;;;;;;1.13;0.50;;;25.00;44.20;;;;;;5013035;28;20373;-54
2022/05/28 00:26:26;;;;;;;1.17;0.60;;;25.00;44.20;;;;;;5013335;28;20029;-54
2022/05/28 00:28:52;;;;;;;1.02;0.40;;;25.00;44.30;;;;;;5013248;28;20040;-54
2022/05/28 00:31:18;;;;;;;0.90;0.40;;;25.00;44.20;;;;;;5013246;28;20041;-53
2022/05/28 00:33:44;;;;;;;0.82;0.43;;;25.00;44.30;;;;;;5014148;28;20535;-53
2022/05/28 00:36:11;;;;;;;1.50;0.50;;;24.90;44.20;;;;;;5012842;28;20030;-53
2022/05/28 00:38:39;;;;;;;0.60;0.30;;;24.90;44.10;;;;;;5013496;28;20091;-53
2022/05/28 00:41:05;;;;;;;0.68;0.40;;;24.90;44.10;;;;;;5013098;28;20092;-53
2022/05/28 00:43:31;;;;;;;1.02;0.40;;;24.90;44.10;;;;;;5012625;28;20048;-53
2022/05/28 00:46:16;;;;;;;1.38;0.45;;;25.00;44.10;;;;;;5013496;28;20537;-54
2022/05/28 00:48:47;;;;;;;0.63;0.30;;;25.00;44.10;;;;;;5013316;28;20042;-53
2022/05/28 00:51:26;;;;;;;0.88;0.40;;;24.90;44.10;;;;;;5013054;28;20030;-53
2022/05/28 00:53:54;;;;;;;1.15;0.68;;;25.00;44.10;;;;;;5012397;28;20101;-53
2022/05/28 00:56:22;;;;;;;0.73;0.30;;;25.00;44.10;;;;;;5012956;28;20652;-54
2022/05/28 00:58:49;;;;;;;1.17;0.47;;;25.00;44.20;;;;;;5012638;28;20030;-54
2022/05/28 01:01:19;;;;;;;1.17;0.57;;;25.00;44.10;;;;;;5013149;28;20079;-55
2022/05/28 01:04:03;;;;;;;1.17;0.47;;;24.90;44.10;;;;;;5012434;28;20025;-54
2022/05/28 01:07:15;;;;;;;0.70;0.30;;;24.90;44.20;;;;;;5012995;28;20132;-53
2022/05/28 01:09:40;;;;;;;0.95;0.35;;;25.00;44.20;;;;;;4993904;28;20033;-53
2022/05/28 01:12:14;;;;;;;0.63;0.38;;;24.90;44.20;;;;;;5012435;28;20642;-54
2022/05/28 01:15:17;;;;;;;0.85;0.40;;;24.90;44.30;;;;;;5012141;28;20080;-53
2022/05/28 01:17:53;;;;;;;0.65;0.35;;;24.90;44.20;;;;;;5012988;28;20045;-54
2022/05/28 01:20:24;;;;;;;1.10;0.40;;;24.90;44.30;;;;;;5012785;28;20175;-55
2022/05/28 01:23:04;;;;;;;1.15;0.47;;;24.90;44.30;;;;;;5012754;28;20026;-55
2022/05/28 01:25:41;;;;;;;1.00;0.57;;;24.90;44.30;;;;;;5019626;28;20022;-53
2022/05/28 01:28:13;;;;;;;0.60;0.30;;;24.90;44.30;;;;;;5018091;28;20021;-53
2022/05/28 01:30:41;;;;;;;1.98;0.63;;;24.90;44.20;;;;;;5016180;28;20030;-53
2022/05/28 01:33:09;;;;;;;2.05;0.60;;;24.90;44.20;;;;;;5015495;28;20033;-53
2022/05/28 01:35:36;;;;;;;0.50;0.30;;;24.90;44.20;;;;;;5015005;28;20038;-52
2022/05/28 01:38:04;;;;;;;0.60;0.40;;;24.90;44.20;;;;;;5016401;28;20026;-53
2022/05/28 01:40:30;;;;;;;1.02;0.30;;;24.90;44.20;;;;;;5016541;28;20108;-53
2022/05/28 01:43:02;;;;;;;0.35;0.25;;;24.90;44.20;;;;;;5015801;28;20060;-53
2022/05/28 01:45:30;;;;;;;1.23;0.50;;;24.90;44.20;;;;;;5016823;28;20029;-53
2022/05/28 01:48:00;;;;;;;1.08;0.40;;;24.90;44.20;;;;;;5015940;28;20029;-54
2022/05/28 01:50:28;;;;;;;2.53;0.35;;;24.90;44.20;;;;;;5015929;28;20661;-55
2022/05/28 01:52:55;;;;;;;1.10;0.50;;;24.90;44.20;;;;;;5015273;28;20049;-54
2022/05/28 01:55:23;;;;;;;1.17;0.47;;;24.90;44.20;;;;;;5015790;28;20651;-54
2022/05/28 01:57:50;;;;;;;1.13;0.40;;;24.90;44.20;;;;;;5016053;28;20058;-54
2022/05/28 02:00:16;;;;;;;2.05;0.60;;;24.90;44.20;;;;;;5015108;28;20030;-53
2022/05/28 02:02:42;;;;;;;0.43;0.30;;;24.90;44.30;;;;;;5015322;28;20595;-54
2022/05/28 02:05:09;;;;;;;0.90;0.47;;;24.90;44.30;;;;;;5016196;28;20033;-56
2022/05/28 02:07:35;;;;;;;0.82;0.50;;;24.90;44.30;;;;;;5015676;28;20030;-55
2022/05/28 02:10:14;;;;;;;1.08;0.43;;;24.90;44.30;;;;;;5017150;28;20036;-54
2022/05/28 02:13:03;;;;;;;0.63;0.40;;;24.90;44.30;;;;;;5015245;28;20030;-53
2022/05/28 02:15:34;;;;;;;0.75;0.50;;;24.80;44.20;;;;;;5015234;28;20036;-54
2022/05/28 02:18:23;;;;;;;1.30;0.40;;;24.90;44.20;;;;;;5015276;28;20077;-54
2022/05/28 02:20:53;;;;;;;1.02;0.50;;;24.90;44.20;;;;;;5014751;28;20038;-53
2022/05/28 02:23:29;;;;;;;1.15;0.55;;;24.90;44.20;;;;;;5014957;28;20030;-54
2022/05/28 02:25:57;;;;;;;0.60;0.30;;;24.80;44.20;;;;;;5015482;28;20030;-54
2022/05/28 02:28:24;;;;;;;2.17;0.45;;;24.80;44.20;;;;;;5015287;28;20579;-56
2022/05/28 02:30:53;;;;;;;1.23;0.45;;;24.80;44.20;;;;;;5015966;28;20037;-54
2022/05/28 02:33:20;;;;;;;1.20;0.70;;;24.90;44.20;;;;;;5014735;28;20026;-54
2022/05/28 02:35:46;;;;;;;1.38;0.50;;;24.80;44.20;;;;;;5015242;28;20545;-54
2022/05/28 02:38:13;;;;;;;0.82;0.38;;;24.80;44.10;;;;;;5014985;28;20029;-53
2022/05/28 02:40:39;;;;;;;0.90;0.40;;;24.80;44.10;;;;;;5015195;28;20101;-52
2022/05/28 02:43:05;;;;;;;1.23;0.40;;;24.90;44.20;;;;;;5014914;28;20072;-52
2022/05/28 02:45:31;;;;;;;0.60;0.40;;;24.80;44.10;;;;;;5016189;28;20515;-52
2022/05/28 02:47:56;;;;;;;0.65;0.40;;;24.80;44.20;;;;;;5015381;28;20049;-53
2022/05/28 02:50:26;;;;;;;0.95;0.43;;;24.80;44.20;;;;;;5014910;28;20099;-52
2022/05/28 02:52:52;;;;;;;0.90;0.50;;;24.80;44.20;;;;;;5016160;28;20026;-53
2022/05/28 02:55:19;;;;;;;0.70;0.40;;;24.80;44.20;;;;;;5014436;28;20018;-52
2022/05/28 02:57:44;;;;;;;0.98;0.40;;;24.80;44.20;;;;;;5014447;28;20030;-52
2022/05/28 03:00:13;;;;;;;1.17;0.60;;;24.80;44.20;;;;;;5015496;28;20029;-52
2022/05/28 03:02:38;;;;;;;0.80;0.38;;;24.80;44.20;;;;;;5014434;28;20029;-55
2022/05/28 03:05:04;;;;;;;0.95;0.50;;;24.80;44.20;;;;;;5014357;28;20049;-52
2022/05/28 03:07:30;;;;;;;1.30;0.68;;;24.80;44.10;;;;;;5014054;28;20042;-54
2022/05/28 03:09:56;;;;;;;1.35;0.50;;;24.90;44.20;;;;;;5014475;28;20038;-53
2022/05/28 03:12:21;;;;;;;1.27;0.70;;;24.80;44.10;;;;;;5014769;28;20029;-55
2022/05/28 03:14:47;;;;;;;0.85;0.50;;;24.80;44.20;;;;;;5014450;28;20029;-52
2022/05/28 03:17:13;;;;;;;0.80;0.50;;;24.80;44.20;;;;;;5014277;28;20232;-53
2022/05/28 03:19:38;;;;;;;0.70;0.43;;;24.80;44.20;;;;;;5021395;28;20071;-55
2022/05/28 03:22:04;;;;;;;1.13;0.50;;;24.90;44.20;;;;;;5014143;28;20499;-54
2022/05/28 03:24:30;;;;;;;0.98;0.50;;;24.80;44.10;;;;;;5014520;28;20084;-54
2022/05/28 03:26:57;;;;;;;0.47;0.32;;;24.80;44.20;;;;;;5014716;28;20021;-53
2022/05/28 03:29:24;;;;;;;0.90;0.47;;;24.80;44.20;;;;;;5014025;28;20048;-55
2022/05/28 03:31:50;;;;;;;1.17;0.55;;;24.80;44.20;;;;;;5013749;28;20084;-54
2022/05/28 03:34:16;;;;;;;1.20;0.60;;;24.80;44.20;;;;;;5013304;28;20627;-52
2022/05/28 03:36:42;;;;;;;0.85;0.20;;;24.80;44.20;;;;;;5013744;28;20018;-52
2022/05/28 03:39:07;;;;;;;0.77;0.50;;;24.80;44.20;;;;;;5014876;28;20029;-53
2022/05/28 03:41:33;;;;;;;0.98;0.55;;;24.80;44.20;;;;;;5014015;28;20550;-52
2022/05/28 03:43:59;;;;;;;0.63;0.40;;;24.80;44.20;;;;;;5013464;28;20021;-52
2022/05/28 03:46:25;;;;;;;1.45;0.63;;;24.80;44.30;;;;;;5014737;28;20040;-53
2022/05/28 03:49:06;;;;;;;1.60;0.60;;;24.80;44.20;;;;;;5013366;28;20051;-54
2022/05/28 03:51:32;;;;;;;0.82;0.50;;;24.80;44.20;;;;;;5013907;28;20021;-53
2022/05/28 03:53:58;;;;;;;0.90;0.55;;;24.80;44.20;;;;;;5013660;28;20052;-54
2022/05/28 03:56:30;;;;;;;2.35;0.65;;;24.80;44.20;;;;;;5013953;28;20552;-54
2022/05/28 03:58:56;;;;;;;0.60;0.40;;;24.80;44.20;;;;;;5012175;28;20030;-54
2022/05/28 04:01:22;;;;;;;0.90;0.50;;;24.80;44.20;;;;;;5013340;28;20694;-54
2022/05/28 04:03:48;;;;;;;0.82;0.50;;;24.80;44.20;;;;;;5013448;28;20076;-55
2022/05/28 04:06:13;;;;;;;1.23;0.50;;;24.80;44.20;;;;;;5013512;28;20037;-54
2022/05/28 04:08:40;;;;;;;1.65;0.73;;;24.80;44.20;;;;;;5013609;28;20172;-53
2022/05/28 04:11:06;;;;;;;1.65;0.60;;;24.80;44.20;;;;;;5013587;28;20055;-53
2022/05/28 04:13:32;;;;;;;0.98;0.50;;;24.80;44.30;;;;;;5013348;28;20030;-53
2022/05/28 04:15:58;;;;;;;0.98;0.57;;;24.80;44.20;;;;;;5013298;28;20445;-54
2022/05/28 04:18:24;;;;;;;2.03;0.60;;;24.80;44.20;;;;;;5013703;28;20040;-54
2022/05/28 04:20:49;;;;;;;0.85;0.43;;;24.80;44.20;;;;;;5013492;28;20528;-55
2022/05/28 04:23:16;;;;;;;1.10;0.45;;;24.80;44.20;;;;;;5012475;28;20033;-52
2022/05/28 04:25:41;;;;;;;1.20;0.50;;;24.70;44.20;;;;;;5013493;28;20083;-52
2022/05/28 04:28:08;;;;;;;0.73;0.50;;;24.80;44.30;;;;;;5012997;28;20029;-51
2022/05/28 04:30:34;;;;;;;0.77;0.43;;;24.80;44.20;;;;;;5014170;28;20037;-52
2022/05/28 04:33:00;;;;;;;0.80;0.40;;;24.70;44.90;;;;;;5012811;28;20056;-53
2022/05/28 04:35:26;;;;;;;2.08;0.52;;;24.80;44.20;;;;;;5013008;28;20057;-52
2022/05/28 04:37:52;;;;;;;1.10;0.60;;;24.80;44.30;;;;;;5013357;28;20108;-52
2022/05/28 04:40:17;;;;;;;1.35;0.57;;;24.80;44.20;;;;;;5011442;28;20604;-52
2022/05/28 04:42:43;;;;;;;1.35;0.60;;;24.80;44.20;;;;;;5012859;28;20033;-52
2022/05/28 04:45:09;;;;;;;1.05;0.50;;;24.80;44.20;;;;;;5014308;28;20116;-52
2022/05/28 04:47:35;;;;;;;1.92;0.82;;;24.80;44.20;;;;;;5012994;28;20033;-53
2022/05/28 04:50:01;;;;;;;1.77;0.68;;;24.80;44.20;;;;;;5012901;28;20382;-55
2022/05/28 04:52:26;;;;;;;1.63;0.65;;;24.80;44.20;;;;;;5013089;28;20715;-54
2022/05/28 04:54:52;;;;;;;2.10;0.65;;;24.80;44.20;;;;;;5012754;28;20117;-53
2022/05/28 04:57:18;;;;;;;1.33;0.57;;;24.70;44.20;;;;;;5013170;28;20061;-55
2022/05/28 04:59:43;;;;;;;0.50;0.40;;;24.80;44.20;;;;;;5016159;28;20026;-54
2022/05/28 05:02:09;;;;;;;2.55;0.73;;;24.80;44.20;;;;;;5016386;28;20056;-55
2022/05/28 05:04:35;;;;;;;1.15;0.57;;;24.80;44.20;;;;;;5016570;28;20021;-55
2022/05/28 05:07:01;;;;;;;2.17;0.80;;;24.80;44.20;;;;;;5014990;28;20022;-54
2022/05/28 05:09:26;;;;;;;2.08;0.65;;;24.70;44.20;;;;;;5016133;28;20047;-54
2022/05/28 05:11:52;;;;;;;1.10;0.60;;;24.80;44.20;;;;;;5015909;28;20022;-52
2022/05/28 05:14:18;;;;;;;1.52;0.60;;;24.80;44.20;;;;;;5016970;28;20029;-52
2022/05/28 05:16:44;;;;;;;1.38;0.60;;;24.70;44.20;;;;;;5019248;28;20029;-52
2022/05/28 05:19:10;;;;;;;1.08;0.52;;;24.70;44.20;;;;;;5017899;28;20540;-55
2022/05/28 05:21:35;;;;;;;1.10;0.63;;;24.70;44.20;;;;;;5017686;28;20025;-53
2022/05/28 05:24:01;;;;;;;1.02;0.50;;;24.70;44.20;;;;;;5015553;28;20026;-54
2022/05/28 05:26:27;;;;;;;1.40;0.70;;;24.70;44.10;;;;;;5015869;28;20092;-52
2022/05/28 05:28:54;;;;;;;1.60;0.77;;;24.70;44.10;;;;;;5015334;28;20025;-54
2022/05/28 05:31:20;;;;;;;4.43;0.50;;;24.70;44.10;;;;;;5015418;28;20025;-55
2022/05/28 05:33:45;;;;;;;1.02;0.47;;;24.70;44.10;;;;;;5014617;28;20622;-53
2022/05/28 05:36:11;;;;;;;1.25;0.60;;;24.70;44.10;;;;;;5015685;28;20450;-54
2022/05/28 05:38:38;;;;;;;1.05;0.60;;;24.70;44.10;;;;;;5018666;28;20083;-54
2022/05/28 05:41:04;;;;;;;0.93;0.60;;;24.70;44.10;;;;;;5015872;28;20033;-56
2022/05/28 05:43:30;;;;;;;1.50;0.60;;;24.70;44.10;;;;;;5015753;28;20029;-54
2022/05/28 05:45:58;;;;;;;2.35;0.50;;;24.70;44.10;;;;;;5015642;28;20515;-53
2022/05/28 05:48:25;;;;;;;1.27;0.60;;;24.70;44.10;;;;;;5015688;28;20129;-54
2022/05/28 05:50:51;;;;;;;1.80;0.75;;;24.70;44.10;;;;;;5015822;28;20662;-55
2022/05/28 05:53:17;;;;;;;1.30;0.60;;;24.70;44.10;;;;;;5015238;28;20677;-53
2022/05/28 05:55:43;;;;;;;1.45;0.60;;;24.70;44.10;;;;;;5014628;28;20021;-54
2022/05/28 05:58:10;;;;;;;1.10;0.50;;;24.70;44.10;;;;;;5015189;28;20056;-53
2022/05/28 06:00:36;;;;;;;2.22;0.73;;;24.70;44.10;;;;;;5017918;28;20738;-51
2022/05/28 06:03:02;;;;;;;1.05;0.50;;;24.70;44.10;;;;;;5024653;28;20562;-52
2022/05/28 06:05:28;;;;;;;1.00;0.60;;;24.70;44.00;;;;;;5025169;28;20021;-52
2022/05/28 06:07:53;;;;;;;1.77;0.52;;;24.70;44.10;;;;;;5024448;28;20040;-52
2022/05/28 06:10:19;;;;;;;1.17;0.50;;;24.70;44.10;;;;;;5024931;28;20030;-52
2022/05/28 06:12:45;;;;;;;2.10;0.80;;;24.70;44.10;;;;;;5024825;28;20041;-54
2022/05/28 06:15:12;;;;;;;0.93;0.50;;;24.70;44.10;;;;;;5024709;28;20034;-55
2022/05/28 06:17:38;;;;;;;1.40;0.52;;;24.70;44.10;;;;;;5024860;28;20025;-52
2022/05/28 06:20:11;;;;;;;1.42;0.60;;;24.70;44.10;;;;;;5024530;28;20055;-53
2022/05/28 06:22:37;;;;;;;;;;;24.70;44.10;;;;;;5023025;28;20477;-53
2022/05/28 06:25:03;;;;;;;1.20;0.60;;;24.70;44.10;;;;;;5014112;28;20361;-53
2022/05/28 06:27:30;;;;;;;1.40;0.60;;;24.70;44.10;;;;;;5013669;28;20033;-50
2022/05/28 06:29:56;;;;;;;1.10;0.50;;;24.70;44.20;;;;;;5012583;28;20026;-50
2022/05/28 06:32:22;;;;;;;1.20;0.50;;;24.70;45.10;;;;;;5014698;28;20116;-48
2022/05/28 06:34:48;;;;;;;2.65;0.52;;;24.70;45.10;;;;;;5023570;28;20029;-56
2022/05/28 06:37:15;;;;;;;1.23;0.52;;;24.70;45.10;;;;;;5025200;28;20057;-50
2022/05/28 06:39:40;;;;;;;0.95;0.50;;;24.80;45.10;;;;;;5023241;28;20045;-49
2022/05/28 06:42:06;;;;;;;1.27;0.52;;;24.80;45.20;;;;;;5024752;28;20378;-49
2022/05/28 06:44:32;;;;;;;1.25;0.70;;;24.80;45.20;;;;;;5025099;28;20087;-50
2022/05/28 06:46:58;;;;;;;1.85;0.73;;;24.80;45.00;;;;;;5024243;28;20500;-48
2022/05/28 06:49:24;;;;;;;1.15;0.60;;;24.80;45.00;;;;;;5024611;28;20451;-50
2022/05/28 06:51:51;;;;;;;2.08;0.75;;;24.90;45.10;;;;;;5024396;28;20554;-50
2022/05/28 06:54:17;;;;;;;1.27;0.52;;;24.80;45.10;;;;;;5024002;28;20060;-49
2022/05/28 06:56:43;;;;;;;0.95;0.60;;;24.80;45.00;;;;;;5023926;28;20182;-51
2022/05/28 06:59:09;;;;;;;2.75;0.75;;;24.90;45.10;;;;;;5023944;28;20034;-49
2022/05/28 07:01:35;;;;;;;1.48;0.63;;;24.90;45.20;;;;;;5018100;28;20042;-51
2022/05/28 07:04:00;;;;;;;1.75;0.63;;;24.90;45.00;;;;;;5013404;28;20033;-51
2022/05/28 07:06:29;;;;;;;1.85;1.02;;;24.90;44.60;;;;;;5012798;28;20111;-52
2022/05/28 07:08:55;;;;;;;1.45;0.60;;;24.90;44.50;;;;;;5013342;28;20080;-49
2022/05/28 07:11:21;;;;;;;7.25;0.60;;;24.90;44.90;;;;;;5013791;28;20397;-50
2022/05/28 07:13:47;;;;;;;2.08;0.88;;;24.90;45.40;;;;;;5014177;28;20067;-50
2022/05/28 07:16:13;;;;;;;1.73;0.80;;;24.90;45.50;;;;;;5017059;28;20121;-49
2022/05/28 07:18:40;;;;;;;1.60;0.70;;;25.00;45.40;;;;;;5024537;28;20033;-52
2022/05/28 07:21:07;;;;;;;1.48;0.70;;;25.00;45.30;;;;;;5024203;28;20065;-51
2022/05/28 07:23:34;;;;;;;2.58;0.80;;;25.00;46.10;;;;;;5019457;28;20033;-52
2022/05/28 07:26:04;;;;;;;1.63;0.70;;;25.10;46.10;;;;;;5023583;28;20034;-54
2022/05/28 07:28:32;;;;;;;1.33;0.68;;;25.20;45.60;;;;;;5021492;28;20056;-52
2022/05/28 07:31:01;;;;;;;2.22;0.50;;;25.30;45.30;;;;;;5015432;28;20021;-52
2022/05/28 07:33:33;;;;;;;1.52;0.68;;;25.30;45.00;;;;;;5021753;28;20030;-53
2022/05/28 07:36:00;;;;;;;1.15;0.55;;;25.30;45.40;;;;;;5022170;28;20034;-52
2022/05/28 07:38:27;;;;;;;1.83;0.80;;;25.30;45.50;;;;;;5023520;28;20025;-53
2022/05/28 07:40:53;;;;;;;1.75;0.70;;;25.40;45.50;;;;;;5023673;28;20215;-50
2022/05/28 07:43:19;;;;;;;2.03;0.75;;;25.30;45.40;;;;;;5022915;28;20025;-51
2022/05/28 07:45:46;;;;;;;1.73;0.73;;;25.30;45.20;;;;;;5023782;28;20099;-50
2022/05/28 07:48:14;;;;;;;2.58;1.08;;;25.30;45.00;;;;;;5023377;28;20022;-54
2022/05/28 07:50:40;;;;;;;2.03;0.82;;;25.30;45.50;;;;;;5003549;28;20036;-52
2022/05/28 07:53:07;;;;;;;2.72;0.80;;;25.30;44.70;;;;;;5003606;28;20026;-50
2022/05/28 07:55:33;;;;;;;2.25;0.77;;;25.30;44.60;;;;;;5004254;28;20026;-52
2022/05/28 07:58:05;;;;;;;2.63;0.85;;;25.30;44.40;;;;;;5003772;28;20386;-51
2022/05/28 08:00:31;;;;;;;2.22;0.80;;;25.30;44.40;;;;;;5006413;28;20037;-50
2022/05/28 08:02:57;;;;;;;2.03;0.93;;;25.30;44.20;;;;;;5023275;28;20389;-52
2022/05/28 08:05:22;;;;;;;2.05;0.90;;;25.30;43.90;;;;;;5023277;28;20483;-50
2022/05/28 08:07:48;;;;;;;2.30;0.80;;;25.30;43.80;;;;;;5023350;28;20044;-51
2022/05/28 08:10:14;;;;;;;3.63;1.02;;;25.30;43.70;;;;;;5022656;28;20025;-50
2022/05/28 08:12:40;;;;;;;1.88;0.95;;;25.30;43.60;;;;;;5021700;28;20025;-50
2022/05/28 08:15:07;;;;;;;2.22;0.85;;;25.30;43.30;;;;;;5022506;28;20094;-47
2022/05/28 08:17:32;;;;;;;4.45;1.40;;;25.30;43.40;;;;;;5023382;28;20041;-46
2022/05/28 08:19:58;;;;;;;4.50;1.20;;;25.30;43.40;;;;;;5024099;28;20018;-46
2022/05/28 08:25:08;;;;;;;3.60;1.20;;;25.30;42.80;;;;;;5019752;28;20245;-46
2022/05/28 08:27:36;;;;;;;2.50;1.10;;;25.30;42.60;;;;;;5023947;28;20056;-46
2022/05/28 08:30:03;;;;;;;2.97;0.93;;;25.20;42.50;;;;;;5023383;28;20025;-46
2022/05/28 08:32:29;;;;;;;2.30;1.05;;;25.30;42.30;;;;;;5023503;28;20029;-46
2022/05/28 08:34:55;;;;;;;4.28;1.40;;;25.20;42.30;;;;;;5029391;28;20096;-45
2022/05/28 08:37:21;;;;;;;3.72;1.10;;;25.20;41.80;;;;;;5030403;28;20029;-47
2022/05/28 08:39:46;;;;;;;3.10;1.38;;;25.20;41.90;;;;;;5030199;28;20104;-46
2022/05/28 08:42:14;;;;;;;4.18;1.30;;;25.20;41.60;;;;;;5030223;28;20143;-47
2022/05/28 08:44:41;;;;;;;2.92;1.10;;;25.20;41.60;;;;;;5030021;28;20124;-46
2022/05/28 08:47:21;;;;;;;2.83;1.17;;;25.20;41.20;;;;;;5029886;28;20033;-46
2022/05/28 08:49:49;;;;;;;4.88;1.30;;;25.20;41.60;;;;;;5030466;28;20032;-46
2022/05/28 08:52:36;;;;;;;2.40;1.00;;;25.20;41.50;;;;;;5029987;28;20500;-47
2022/05/28 08:55:10;;;;;;;2.75;1.08;;;25.20;41.60;;;;;;5029595;28;20083;-48
2022/05/28 08:57:53;;;;;;;3.58;1.30;;;25.20;41.40;;;;;;5030291;28;20025;-48
2022/05/28 09:00:57;;;;;;;3.88;1.13;;;25.20;41.60;;;;;;5029958;28;20022;-47
2022/05/28 09:03:28;;;;;;;2.30;0.93;;;25.20;41.00;;;;;;5027002;28;20041;-49
2022/05/28 09:05:58;;;;;;;4.20;1.02;;;25.20;41.50;;;;;;5026310;28;20553;-46
2022/05/28 09:08:29;;;;;;;5.25;1.60;;;25.20;41.50;;;;;;5024476;28;20110;-47
2022/05/28 09:11:01;;;;;;;2.65;1.00;;;25.20;41.30;;;;;;5023091;28;20028;-46
2022/05/28 09:13:39;;;;;;;4.90;1.20;;;25.20;40.80;;;;;;5029069;28;20152;-48
2022/05/28 09:16:07;;;;;;;4.68;1.30;;;25.20;40.90;;;;;;5029201;28;20076;-47
2022/05/28 09:18:40;;;;;;;4.78;1.40;;;25.20;40.90;;;;;;5019381;28;20654;-47
2022/05/28 09:21:13;;;;;;;5.28;1.70;;;25.20;40.90;;;;;;5018795;28;20032;-47
2022/05/28 09:24:26;;;;;;;3.60;1.23;;;25.20;40.80;;;;;;5018628;28;20097;-47
2022/05/28 09:27:04;;;;;;;6.03;1.30;;;25.20;40.80;;;;;;5012693;28;20045;-47
2022/05/28 09:29:48;;;;;;;4.38;1.30;;;25.20;40.50;;;;;;5018769;28;20104;-46
2022/05/28 09:32:35;;;;;;;5.53;2.20;;;25.20;40.70;;;;;;5017648;28;20281;-47
2022/05/28 09:35:24;;;;;;;3.83;1.30;;;25.20;40.50;;;;;;5019350;28;20038;-48
2022/05/28 09:38:10;;;;;;;2.88;1.33;;;25.20;40.60;;;;;;5020195;28;20580;-49
2022/05/28 09:40:58;;;;;;;4.13;1.35;;;25.20;40.50;;;;;;5016787;28;20456;-49
2022/05/28 09:43:54;;;;;;;3.95;1.40;;;25.20;40.00;;;;;;5018655;28;20022;-48
2022/05/28 09:46:36;;;;;;;2.92;0.93;;;25.20;40.30;;;;;;5016244;28;20038;-47
2022/05/28 09:49:12;;;;;;;3.33;1.45;;;25.20;38.60;;;;;;5011089;28;20041;-47
2022/05/28 09:51:38;;;;;;;4.72;1.27;;;25.10;38.10;;;;;;5018549;28;20101;-49
2022/05/28 09:54:18;;;;;;;5.53;1.27;;;25.10;38.50;;;;;;5014818;28;20232;-46
2022/05/28 09:56:51;;;;;;;3.88;1.48;;;25.10;37.90;;;;;;5015944;28;20026;-48
2022/05/28 09:59:23;;;;;;;3.38;1.38;;;25.00;37.00;;;;;;5015721;28;20030;-47
2022/05/28 10:01:59;;;;;;;2.90;1.08;;;25.00;38.00;;;;;;5014511;28;20025;-46
2022/05/28 10:04:29;;;;;;;4.43;1.83;;;25.00;38.30;;;;;;5015297;28;20032;-46
2022/05/28 10:06:56;;;;;;;4.90;1.90;;;25.00;39.20;;;;;;5012704;28;20795;-48
2022/05/28 10:09:33;;;;;;;6.22;2.47;;;24.90;43.00;;;;;;5023787;28;20029;-47
2022/05/28 10:12:00;;;;;;;4.88;2.22;;;24.90;45.10;;;;;;5005752;28;20564;-49
2022/05/28 10:14:29;;;;;;;6.97;2.33;;;24.90;44.40;;;;;;5005818;28;20030;-49
2022/05/28 10:16:58;;;;;;;4.40;2.05;;;24.90;40.90;;;;;;5017432;28;20057;-50
2022/05/28 10:19:44;;;;;;;4.40;1.70;;;24.80;39.80;;;;;;5025758;28;20029;-49
2022/05/28 10:22:18;;;;;;;4.18;1.67;;;24.80;37.80;;;;;;5012605;28;20117;-50
2022/05/28 10:24:50;;;;;;;5.95;2.03;;;24.70;36.70;;;;;;5024151;28;20069;-49
2022/05/28 10:27:28;;;;;;;3.85;1.77;;;24.70;35.90;;;;;;5025926;28;20573;-49
2022/05/28 10:29:57;;;;;;;5.32;2.15;;;24.60;38.80;;;;;;5025614;28;20087;-49
2022/05/28 10:32:37;;;;;;;6.38;2.13;;;24.60;38.10;;;;;;5025350;28;20037;-49
2022/05/28 10:35:06;;;;;;;4.82;1.75;;;24.50;36.60;;;;;;5025527;28;20108;-49
2022/05/28 10:37:32;;;;;;;7.35;2.13;;;24.40;33.70;;;;;;5026026;28;20053;-48
2022/05/28 10:40:08;;;;;;;3.63;1.33;;;24.30;35.00;;;;;;5025070;28;20104;-49
2022/05/28 10:42:35;;;;;;;3.35;1.20;;;24.30;36.70;;;;;;5025547;28;20041;-48
2022/05/28 10:45:01;;;;;;;3.13;1.27;;;24.30;37.30;;;;;;5024887;28;20087;-48
2022/05/28 10:47:34;;;;;;;4.03;1.58;;;24.30;37.60;;;;;;5025138;28;20045;-49
2022/05/28 10:50:25;;;;;;;3.22;1.17;;;24.30;37.60;;;;;;5023849;28;20147;-47
2022/05/28 10:53:07;;;;;;;2.53;0.82;;;24.20;34.10;;;;;;5024915;28;20030;-47
2022/05/28 10:55:36;;;;;;;2.72;0.90;;;24.20;34.40;;;;;;5017538;28;20026;-48
2022/05/28 10:58:25;;;;;;;3.55;1.20;;;24.20;36.10;;;;;;5014651;28;20028;-48
2022/05/28 11:01:02;;;;;;;4.72;1.10;;;24.10;36.10;;;;;;5014820;28;20034;-48
2022/05/28 11:03:49;;;;;;;3.40;1.63;;;24.10;36.00;;;;;;5023007;28;20679;-47
2022/05/28 11:06:18;;;;;;;3.03;1.20;;;24.10;36.10;;;;;;5023533;28;20026;-48
2022/05/28 11:08:47;;;;;;;3.00;0.98;;;24.10;35.90;;;;;;5024750;28;20409;-47
2022/05/28 11:11:34;;;;;;;3.47;1.10;;;24.10;35.60;;;;;;5024339;28;20513;-49
2022/05/28 11:14:12;;;;;;;3.13;0.85;;;24.10;36.20;;;;;;5023241;28;20025;-49
2022/05/28 11:16:53;;;;;;;2.42;0.90;;;24.10;36.30;;;;;;5023139;28;20067;-47
2022/05/28 11:19:33;;;;;;;3.13;0.93;;;24.10;36.00;;;;;;5008491;28;20155;-48
2022/05/28 11:22:01;;;;;;;3.00;1.00;;;24.10;36.00;;;;;;5018860;28;20088;-47
2022/05/28 11:24:36;;;;;;;1.83;0.63;;;24.10;36.00;;;;;;5009277;28;20037;-47
2022/05/28 11:27:21;;;;;;;2.22;0.60;;;24.10;35.80;;;;;;5024317;28;20708;-47
2022/05/28 11:30:07;;;;;;;3.55;1.00;;;24.10;34.40;;;;;;5017152;28;20516;-46
2022/05/28 11:32:49;;;;;;;4.20;1.33;;;24.10;35.00;;;;;;5024418;28;20709;-46
2022/05/28 11:35:46;;;;;;;2.50;1.00;;;24.10;34.90;;;;;;5024092;28;20040;-46
2022/05/28 11:38:24;;;;;;;3.15;0.80;;;24.00;32.20;;;;;;5009847;28;20603;-45
2022/05/28 11:41:07;;;;;;;2.95;0.95;;;24.10;33.70;;;;;;5022247;28;20033;-46
2022/05/28 11:43:45;;;;;;;1.42;0.50;;;24.00;33.20;;;;;;5023846;28;20079;-45
2022/05/28 11:46:29;;;;;;;2.53;0.70;;;23.90;29.70;;;;;;5024172;28;20425;-47
2022/05/28 11:52:10;;;;;;;2.55;0.75;;;23.90;33.50;;;;;;5012425;28;20547;-45
2022/05/28 11:54:51;;;;;;;1.77;0.60;;;23.90;32.30;;;;;;5023774;28;20053;-46
2022/05/28 11:57:25;;;;;;;2.65;0.70;;;23.90;33.40;;;;;;5024163;28;20088;-47
2022/05/28 11:59:52;;;;;;;3.70;1.02;;;23.90;33.10;;;;;;5019703;28;20022;-47
2022/05/28 12:02:25;;;;;;;2.58;0.70;;;23.90;33.60;;;;;;5017127;28;20398;-46
2022/05/28 12:04:50;;;;;;;2.50;0.75;;;23.90;33.50;;;;;;5023437;28;20025;-47
2022/05/28 12:07:33;;;;;;;2.50;0.80;;;23.90;33.80;;;;;;5023896;28;20036;-47
2022/05/28 12:10:01;;;;;;;2.20;0.77;;;23.90;33.40;;;;;;5021756;28;20414;-47
2022/05/28 12:12:35;;;;;;;2.33;0.80;;;23.90;32.60;;;;;;5023481;28;20052;-46
2022/05/28 12:15:07;;;;;;;3.85;0.80;;;23.90;32.50;;;;;;5021712;28;20025;-46
2022/05/28 12:17:33;;;;;;;1.98;0.88;;;23.90;32.70;;;;;;5023598;28;20044;-46
2022/05/28 12:20:05;;;;;;;2.90;0.75;;;23.90;34.10;;;;;;5023345;28;20033;-46
2022/05/28 12:22:30;;;;;;;4.82;1.20;;;23.90;34.10;;;;;;5023293;28;20100;-46
2022/05/28 12:25:11;;;;;;;2.42;0.88;;;24.00;34.10;;;;;;5004956;28;20650;-46
2022/05/28 12:27:46;;;;;;;2.65;0.80;;;24.00;34.60;;;;;;5003659;28;20401;-46
2022/05/28 12:30:28;;;;;;;3.42;1.27;;;24.00;34.60;;;;;;5013155;28;20025;-45
2022/05/28 12:32:57;;;;;;;3.07;0.93;;;24.00;34.40;;;;;;5023088;28;20032;-46
2022/05/28 12:35:51;;;;;;;3.25;0.90;;;24.00;34.20;;;;;;5018736;28;20646;-45
2022/05/28 12:38:30;;;;;;;2.63;0.98;;;24.00;34.50;;;;;;5004383;28;20033;-46
2022/05/28 12:41:01;;;;;;;2.83;0.80;;;23.90;35.10;;;;;;5004390;28;20109;-47
2022/05/28 12:43:34;;;;;;;2.45;0.80;;;24.00;35.20;;;;;;5003670;28;20026;-49
2022/05/28 12:46:33;;;;;;;3.83;1.13;;;23.90;35.70;;;;;;5005783;28;20064;-49
2022/05/28 12:49:19;;;;;;;3.80;1.10;;;24.00;35.90;;;;;;5003369;28;20030;-48
2022/05/28 12:51:56;;;;;;;4.20;0.80;;;24.00;36.00;;;;;;5015682;28;20033;-47
2022/05/28 12:54:25;;;;;;;3.47;1.17;;;24.00;36.80;;;;;;5015273;28;20117;-48
2022/05/28 12:56:50;;;;;;;4.07;0.88;;;24.00;36.90;;;;;;5009432;28;20018;-46
2022/05/28 12:59:25;;;;;;;2.90;0.98;;;24.10;37.40;;;;;;5022385;28;20426;-49
2022/05/28 13:01:57;;;;;;;3.10;1.10;;;24.10;37.30;;;;;;5022979;28;20025;-48
2022/05/28 13:04:28;;;;;;;4.55;1.63;;;24.10;37.50;;;;;;5016857;28;20034;-49
2022/05/28 13:06:56;;;;;;;3.05;0.90;;;24.20;37.90;;;;;;5014553;28;20030;-46
2022/05/28 13:09:28;;;;;;;4.60;1.27;;;24.20;38.00;;;;;;5011092;28;20037;-47
2022/05/28 13:12:01;;;;;;;4.03;1.17;;;24.20;38.50;;;;;;5019303;28;20025;-48